Latest Coastal Weather Observations for Low Head

IDT60701

Issued at 11:51 am EST Wednesday 4 May 2016 (issued every 10 minutes, with the page automatically refreshed every 10 minutes)

About coastal observations | Map of coastal stations | Coastal observations for TAS | Marine services | Other Formats
Station Details ID: 091293 Name: LOW HEAD Lat: -41.05 Lon: 146.79 Height: 3.0 m
Data from the previous 72 hours. | See also: Recent months at Low Head
Date/Time
EST
Temp

°C
Wind Pressure Rain
since 9am
mm
Weather Cloud Vis
km
Sea
Height
m
Swell
Dir
 
Speed
knots
Gust
knots
hPa Trend Height
m
Period
s
Dir
04/11:30am 13.8 WNW 21 26 1010.1 - 0.0 - - - - - - -
04/11:00am 13.4 W 22 26 1010.0 - 0.0 - - - - - - -
04/10:30am 13.5 W 23 27 1009.9 - 0.0 - - - - - - -
04/10:00am 12.7 W 22 29 1009.8 - 0.0 - - - - - - -
04/09:30am 12.7 W 23 29 1009.5 - 0.0 - - - - - - -
04/09:00am 12.3 W 19 23 1009.1 - 9.2 - - - - - - -
04/08:30am 11.8 W 17 20 1009.1 - 9.2 - - - - - - -
04/08:00am 11.6 W 18 22 1008.7 - 9.2 - - - - - - -
04/07:30am 11.6 W 17 20 1008.2 - 9.2 - - - - - - -
04/07:00am 11.4 W 19 23 1007.6 - 9.2 - - - - - - -
04/06:30am 11.5 WSW 24 28 1007.0 - 9.2 - - - - - - -
04/06:00am 11.7 W 23 30 1006.6 - 9.2 - - - - - - -
04/05:30am 11.5 W 23 27 1006.0 - 9.2 - - - - - - -
04/05:00am 11.8 W 24 28 1005.3 - 9.2 - - - - - - -
04/04:30am 12.0 W 25 31 1004.7 - 9.2 - - - - - - -
04/04:00am 11.7 W 25 29 1004.3 - 9.2 - - - - - - -
04/03:34am 12.1 W 28 38 1003.7 - 9.2 - - - - - - -
04/03:30am 12.0 W 29 38 1003.5 - 9.2 - - - - - - -
04/03:00am 12.1 W 27 34 1003.0 - 9.2 - - - - - - -
04/02:30am 12.1 W 28 34 1002.5 - 9.2 - - - - - - -
04/02:00am 12.1 W 29 34 1002.1 - 9.2 - - - - - - -
04/01:30am 12.0 W 30 35 1001.6 - 9.2 - - - - - - -
04/01:00am 12.3 W 30 37 1001.4 - 9.2 - - - - - - -
04/12:30am 12.2 W 30 36 1001.2 - 9.2 - - - - - - -
04/12:00am 12.3 W 27 32 1001.0 - 9.2 - - - - - - -
 
Date/Time
EST
Temp

°C
Wind Pressure Rain
since 9am
mm
Weather Cloud Vis
km
Sea
Height
m
Swell
Dir
 
Speed
knots
Gust
knots
hPa Trend Height
m
Period
s
Dir
03/11:30pm 11.9 WNW 26 35 1000.5 - 9.2 - - - - - - -
03/11:00pm 12.0 W 29 37 1000.6 - 9.2 - - - - - - -
03/10:46pm 12.3 W 29 39 1000.5 - 9.2 - - - - - - -
03/10:30pm 12.8 W 31 38 1000.1 - 9.2 - - - - - - -
03/10:00pm 12.4 W 30 40 1000.0 - 9.2 - - - - - - -
03/09:45pm 12.2 W 24 34 999.8 - 9.2 - - - - - - -
03/09:30pm 11.9 W 23 28 999.8 - 9.2 - - - - - - -
03/09:00pm 12.9 W 30 38 999.3 - 9.2 - - - - - - -
03/08:30pm 12.7 W 33 39 998.8 - 9.2 - - - - - - -
03/08:20pm 12.4 W 30 41 998.6 - 9.2 - - - - - - -
03/08:00pm 12.8 W 32 40 998.0 - 9.2 - - - - - - -
03/07:54pm 12.5 W 30 40 997.8 - 9.2 - - - - - - -
03/07:30pm 12.3 W 26 30 997.6 - 9.2 - - - - - - -
03/07:00pm 12.7 W 29 35 996.7 - 9.2 - - - - - - -
03/06:30pm 12.4 W 28 35 996.3 - 9.2 - - - - - - -
03/06:00pm 12.2 W 27 35 995.4 - 9.2 - - - - - - -
03/05:37pm 12.1 W 27 37 994.7 - 9.2 - - - - - - -
03/05:30pm 12.2 W 31 37 994.5 - 9.2 - - - - - - -
03/05:00pm 12.2 W 27 33 993.8 - 9.2 - - - - - - -
03/04:30pm 12.1 W 28 34 993.5 - 9.0 - - - - - - -
03/04:00pm 12.1 W 31 35 992.6 - 9.0 - - - - - - -
03/03:30pm 11.9 W 29 35 991.6 - 8.4 - - - - - - -
03/03:29pm 11.7 W 28 35 991.5 - 8.4 - - - - - - -
03/03:00pm 13.1 W 33 39 991.1 - 7.2 - - - - - - -
03/02:30pm 13.8 WNW 29 33 990.9 - 7.2 - - - - - - -
03/02:00pm 13.9 WNW 24 35 990.9 - 7.2 - - - - - - -
03/01:30pm 13.7 WNW 27 34 991.6 - 7.0 - - - - - - -
03/01:00pm 14.3 WNW 27 33 991.5 - 6.8 - - - - - - -
03/12:30pm 14.6 WNW 25 31 991.4 - 6.6 - - - - - - -
03/12:00pm 14.8 WNW 28 35 991.8 - 6.4 Recent precip. - - - - - -
03/11:30am 13.7 WNW 35 47 991.6 - 6.4 - - - - - - -
03/11:28am 13.6 WNW 36 47 991.8 - 6.4 - - - - - - -
03/11:23am 13.9 NW 39 51 992.2 - 4.8 - - - - - - -
03/11:06am 15.7 NNW 37 48 991.0 - 4.0 - - - - - - -
03/11:00am 15.8 NW 36 44 991.0 - 3.8 - - - - - - -
03/10:33am 15.2 NW 30 41 991.3 - 3.8 - - - - - - -
03/10:30am 15.4 NW 30 38 991.4 - 3.8 - - - - - - -
03/10:08am 15.1 NNW 27 39 991.7 - 3.2 - - - - - - -
03/10:00am 15.2 NW 28 34 991.7 - 2.8 - - - - - - -
03/09:30am 14.8 NW 29 37 992.4 - 1.8 - - - - - - -
03/09:00am 14.7 NW 28 35 992.7 - 11.2 Rain - - - - - -
03/08:30am 14.0 NW 29 37 993.0 - 9.8 - - - - - - -
03/08:22am 14.2 WNW 27 37 993.2 - 9.0 - - - - - - -
03/08:00am 14.5 NW 27 32 993.3 - 6.6 - - - - - - -
03/07:30am 14.2 NW 28 36 993.6 - 6.0 - - - - - - -
03/07:20am 14.0 NW 31 41 993.8 - 5.4 - - - - - - -
03/07:08am 14.9 NW 40 52 993.8 - 2.8 - - - - - - -
03/07:00am 16.7 NNW 40 51 992.4 - 1.4 - - - - - - -
03/06:30am 16.7 NNW 40 51 992.8 - 1.4 - - - - - - -
03/06:00am 16.9 NNW 39 52 993.2 - 1.4 - - - - - - -
03/05:30am 17.1 NNW 36 46 993.7 - 1.4 - - - - - - -
03/05:00am 16.8 NNW 37 47 994.0 - 1.4 - - - - - - -
03/04:30am 16.7 NNW 35 46 994.2 - 1.4 - - - - - - -
03/04:27am 16.7 NNW 36 46 994.2 - 1.4 - - - - - - -
03/04:00am 16.6 NNW 35 44 994.7 - 1.4 - - - - - - -
03/03:31am 16.8 NNW 35 47 995.3 - 1.4 - - - - - - -
03/03:30am 16.8 NNW 35 43 995.3 - 1.4 - - - - - - -
03/03:00am 16.8 NNW 36 48 995.9 - 1.4 - - - - - - -
03/02:56am 16.8 NNW 36 46 995.9 - 1.4 - - - - - - -
03/02:30am 16.7 NNW 35 42 996.3 - 1.4 - - - - - - -
03/02:06am 16.6 NNW 33 43 996.7 - 1.4 - - - - - - -
03/02:00am 16.7 NNW 32 39 997.0 - 1.4 - - - - - - -
03/01:34am 16.8 NNW 33 43 997.7 - 1.4 - - - - - - -
03/01:30am 16.8 NNW 34 41 997.6 - 1.4 - - - - - - -
03/01:00am 16.7 NNW 32 39 998.1 - 1.4 - - - - - - -
03/12:52am 16.8 NNW 32 42 998.2 - 1.4 - - - - - - -
03/12:30am 16.7 NNW 32 40 998.6 - 1.4 - - - - - - -
03/12:00am 16.7 NNW 33 45 999.0 - 1.4 - - - - - - -
 
Date/Time
EST
Temp

°C
Wind Pressure Rain
since 9am
mm
Weather Cloud Vis
km
Sea
Height
m
Swell
Dir
 
Speed
knots
Gust
knots
hPa Trend Height
m
Period
s
Dir
02/11:30pm 16.8 NNW 35 47 999.6 - 1.4 - - - - - - -
02/11:09pm 16.7 NNW 34 44 999.7 - 1.4 - - - - - - -
02/11:00pm 16.8 NNW 35 42 999.9 - 1.4 - - - - - - -
02/10:30pm 16.7 NNW 33 43 1000.3 - 1.4 - - - - - - -
02/10:00pm 16.8 NNW 34 44 1000.7 - 1.4 - - - - - - -
02/09:30pm 16.9 NNW 32 40 1001.0 - 1.4 - - - - - - -
02/09:22pm 17.1 NNW 32 42 1001.1 - 1.4 - - - - - - -
02/09:00pm 17.0 NNW 32 39 1001.3 - 1.4 - - - - - - -
02/08:30pm 17.0 NNW 33 45 1001.5 - 1.4 - - - - - - -
02/08:10pm 17.0 NNW 31 41 1001.6 - 1.4 - - - - - - -
02/08:00pm 17.0 NNW 32 39 1001.7 - 1.4 - - - - - - -
02/07:31pm 16.9 NNW 32 42 1001.9 - 1.4 - - - - - - -
02/07:30pm 16.9 NNW 33 42 1001.9 - 1.4 - - - - - - -
02/07:00pm 16.4 NNW 31 38 1002.0 - 1.4 - - - - - - -
02/06:34pm 16.3 NNW 31 41 1002.3 - 1.4 - - - - - - -
02/06:30pm 16.5 NNW 30 39 1002.3 - 1.4 - - - - - - -
02/06:00pm 16.4 NNW 30 36 1002.6 - 1.4 - - - - - - -
02/05:30pm 16.0 NNW 31 37 1002.5 - 1.4 - - - - - - -
02/05:00pm 15.8 NW 31 37 1002.6 - 1.4 - - - - - - -
02/04:39pm 15.2 NW 29 39 1002.8 - 1.4 - - - - - - -
02/04:30pm 14.9 NW 29 37 1003.0 - 1.4 - - - - - - -
02/04:00pm 15.7 NW 28 37 1003.1 - 1.2 - - - - - - -
02/03:50pm 15.9 NW 29 39 1003.4 - 1.2 - - - - - - -
02/03:30pm 15.6 NW 29 34 1003.3 - 1.2 - - - - - - -
02/03:00pm 15.9 NW 30 37 1003.6 - 1.2 - - - - - - -
02/02:30pm 16.0 NW 28 34 1003.8 - 1.2 - - - - - - -
02/02:00pm 15.7 NW 32 37 1003.7 - 1.2 - - - - - - -
02/01:30pm 14.8 NW 24 30 1003.8 - 1.2 - - - - - - -
02/01:25pm 14.6 NW 26 36 1004.0 - 1.2 - - - - - - -
02/01:00pm 14.6 NW 27 32 1004.4 - 1.2 - - - - - - -
02/12:47pm 14.3 NW 29 39 1004.6 - 1.2 - - - - - - -
02/12:38pm 14.2 NW 29 39 1004.6 - 1.2 - - - - - - -
02/12:30pm 14.4 NW 23 33 1004.7 - 1.2 - - - - - - -
02/12:28pm 14.6 NW 21 31 1004.6 - 1.2 - - - - - - -
02/12:00pm 15.3 NW 26 33 1005.1 - 0.4 - - - - - - -
02/11:30am 15.1 NW 24 29 1005.6 - 0.4 - - - - - - -
02/11:15am 15.1 NW 25 29 1005.9 - 0.4 - - - - - - -
02/11:01am 14.6 WNW 16 28 1005.9 - 0.4 - - - - - - -
02/11:00am 14.5 W 15 19 1005.9 - 0.4 - - - - - - -
02/10:30am 14.6 WNW 17 20 1006.1 - 0.0 - - - - - - -
02/10:00am 14.8 WNW 18 22 1006.3 - 0.0 - - - - - - -
02/09:30am 14.4 WNW 23 27 1006.6 - 0.0 - - - - - - -
02/09:00am 13.8 W 20 25 1006.5 - 4.6 - - - - - - -
02/08:30am 13.5 W 20 24 1006.9 - 4.6 - - - - - - -
02/08:00am 13.4 WNW 18 21 1007.0 - 4.6 - - - - - - -
02/07:30am 13.3 W 20 22 1006.9 - 4.6 - - - - - - -
02/07:00am 13.8 W 23 27 1006.7 - 4.6 - - - - - - -
02/06:30am 13.1 W 22 27 1006.5 - 4.6 - - - - - - -
02/06:00am 13.3 W 25 30 1006.7 - 4.6 - - - - - - -
02/05:30am 13.1 W 27 32 1006.8 - 4.6 - - - - - - -
02/05:00am 12.9 W 24 29 1006.8 - 4.6 - - - - - - -
02/04:30am 12.8 W 26 31 1006.8 - 4.6 - - - - - - -
02/04:00am 12.6 W 25 30 1006.7 - 4.6 - - - - - - -
02/03:30am 12.9 W 27 33 1006.8 - 4.6 - - - - - - -
02/03:00am 12.8 W 28 34 1006.8 - 4.6 - - - - - - -
02/02:30am 12.7 W 27 32 1006.9 - 4.6 - - - - - - -
02/02:00am 12.9 W 26 32 1006.9 - 4.6 - - - - - - -
02/01:30am 12.8 W 29 35 1006.9 - 4.6 - - - - - - -
02/01:00am 12.6 W 28 34 1006.8 - 4.6 - - - - - - -
02/12:30am 12.6 W 28 33 1006.5 - 4.6 - - - - - - -
02/12:00am 12.6 W 27 33 1006.6 - 4.6 - - - - - - -
 
Date/Time
EST
Temp

°C
Wind Pressure Rain
since 9am
mm
Weather Cloud Vis
km
Sea
Height
m
Swell
Dir
 
Speed
knots
Gust
knots
hPa Trend Height
m
Period
s
Dir
01/11:30pm 12.5 W 23 29 1006.6 - 4.6 - - - - - - -
01/11:00pm 12.8 W 27 34 1006.4 - 4.6 - - - - - - -
01/10:30pm 12.8 W 31 37 1006.2 - 4.6 - - - - - - -
01/10:00pm 12.7 W 28 36 1006.0 - 4.6 - - - - - - -
01/09:30pm 12.8 W 30 35 1005.6 - 4.6 - - - - - - -
01/09:00pm 13.2 W 29 36 1005.1 - 4.6 - - - - - - -
01/08:30pm 13.0 WSW 27 33 1004.5 - 4.6 - - - - - - -
01/08:00pm 13.2 WSW 30 37 1003.9 - 4.6 - - - - - - -
01/07:30pm 13.7 W 31 40 1003.5 - 4.6 - - - - - - -
01/07:00pm 13.4 W 32 38 1002.5 - 4.6 - - - - - - -
01/06:30pm 14.1 W 33 41 1001.6 - 4.6 - - - - - - -
01/06:00pm 14.0 W 32 40 1000.9 - 4.6 - - - - - - -
01/05:30pm 14.4 W 35 45 999.4 - 4.6 - - - - - - -
01/05:03pm 14.1 W 35 45 998.6 - 4.6 - - - - - - -
01/05:00pm 14.4 W 35 43 998.4 - 4.6 - - - - - - -
01/04:32pm 14.0 W 35 45 997.9 - 4.6 - - - - - - -
01/04:30pm 14.0 W 36 43 997.9 - 4.6 - - - - - - -
01/04:19pm 14.0 W 36 46 997.6 - 4.6 - - - - - - -
01/04:00pm 14.0 W 36 45 997.0 - 4.6 - - - - - - -
01/03:39pm 14.7 W 36 46 996.6 - 4.6 - - - - - - -
01/03:30pm 14.3 W 37 45 996.6 - 4.6 - - - - - - -
01/03:12pm 14.0 W 35 45 996.2 - 4.6 - - - - - - -
01/03:00pm 14.0 W 37 43 996.1 - 4.6 - - - - - - -
01/02:46pm 14.1 W 37 47 995.8 - 4.6 - - - - - - -
01/02:30pm 14.2 W 39 47 995.3 - 4.6 - - - - - - -
01/02:04pm 13.8 W 42 53 994.1 - 4.6 - - - - - - -
01/02:00pm 14.0 W 40 48 994.0 - 4.6 - - - - - - -
01/01:30pm 14.5 W 44 55 992.2 - 4.6 - - - - - - -
01/01:00pm 14.6 WNW 41 55 992.1 - 4.4 - - - - - - -
01/12:35pm 14.7 WNW 37 48 992.4 - 4.4 - - - - - - -
01/12:30pm 15.0 WNW 37 45 992.5 - 4.4 - - - - - - -
01/12:24pm 14.9 WNW 36 45 992.5 - 4.4 - - - - - - -
01/12:00pm 15.8 NW 28 38 992.7 - 4.4 - - - - - - -
01/11:59am 15.8 NW 28 38 992.7 - 4.4 - - - - - - -

Other Formats:

Comma delimited format used in spreadsheet applications
http://www.bom.gov.au/fwo/IDT60701/IDT60701.95964.axf

JavaScript Object Notation format (JSON) in row-major order
http://www.bom.gov.au/fwo/IDT60701/IDT60701.95964.json